createdAt,value
2023-03-04T00:03:40.075Z,25.45
2023-03-04T00:08:41.560Z,22.58
2023-03-04T00:13:43.060Z,22.02
2023-03-04T00:18:44.617Z,26.13
2023-03-04T00:23:46.166Z,24.45
2023-03-04T00:28:47.716Z,24.55
2023-03-04T00:33:49.420Z,26.05
2023-03-04T00:38:50.917Z,25.85
2023-03-04T00:43:52.450Z,23.55
2023-03-04T00:48:53.976Z,26.67
2023-03-04T00:53:55.462Z,22.83
2023-03-04T00:58:57.002Z,22.65
2023-03-04T01:03:58.472Z,25.20
2023-03-04T01:09:01.522Z,24.20
2023-03-04T01:14:02.996Z,23.83
2023-03-04T01:19:05.615Z,23.88
2023-03-04T01:24:07.236Z,22.05
2023-03-04T01:29:08.764Z,22.02
2023-03-04T01:34:10.272Z,22.35
2023-03-04T01:39:11.804Z,20.02
2023-03-04T01:44:13.603Z,21.15
2023-03-04T01:49:15.925Z,21.27
2023-03-04T01:54:17.929Z,22.23
2023-03-04T01:59:22.370Z,22.00
2023-03-04T02:04:26.664Z,23.13
2023-03-04T02:09:29.667Z,20.02
2023-03-04T02:14:31.364Z,21.25
2023-03-04T02:19:49.619Z,24.33
2023-03-04T02:25:03.186Z,20.38
2023-03-04T02:30:06.208Z,20.23
2023-03-04T02:35:16.039Z,21.90
2023-03-04T02:45:49.592Z,22.65
2023-03-04T02:50:53.320Z,24.80
2023-03-04T02:55:54.765Z,25.70
2023-03-04T03:00:58.832Z,23.60
2023-03-04T03:06:02.973Z,21.67
2023-03-04T03:11:05.141Z,21.80
2023-03-04T03:16:08.443Z,25.00
2023-03-04T03:21:09.982Z,23.38
2023-03-04T03:26:11.870Z,21.67
2023-03-04T03:31:13.823Z,20.23
2023-03-04T03:36:15.402Z,20.05
2023-03-04T03:41:16.911Z,22.73
2023-03-04T03:46:18.452Z,20.23
2023-03-04T03:51:19.914Z,20.13
2023-03-04T03:56:21.442Z,20.13
2023-03-04T04:01:22.968Z,23.15
2023-03-04T04:06:24.505Z,21.75
2023-03-04T04:11:26.053Z,23.15
2023-03-04T04:16:27.684Z,21.40
2023-03-04T04:21:29.223Z,23.48
2023-03-04T04:26:30.758Z,22.60
2023-03-04T04:31:32.244Z,21.02
2023-03-04T04:36:33.742Z,24.02
2023-03-04T04:41:38.984Z,24.90
2023-03-04T04:46:41.185Z,24.02
2023-03-04T04:51:42.736Z,61.70
2023-03-04T04:56:44.244Z,63.75
2023-03-04T05:01:45.788Z,35.90
2023-03-04T05:06:47.270Z,38.35
2023-03-04T05:11:49.140Z,39.33
2023-03-04T05:16:50.693Z,29.70
2023-03-04T05:21:52.244Z,24.45
2023-03-04T05:26:53.910Z,30.42
2023-03-04T05:31:55.469Z,27.90
2023-03-04T05:36:56.976Z,28.67
2023-03-04T05:41:58.428Z,24.88
2023-03-04T05:46:59.926Z,24.58
2023-03-04T05:52:01.430Z,24.08
2023-03-04T05:57:02.952Z,23.90
2023-03-04T06:02:04.617Z,25.50
2023-03-04T06:07:06.168Z,27.17
2023-03-04T06:12:07.812Z,26.42
2023-03-04T06:17:09.310Z,28.33
2023-03-04T06:22:11.411Z,25.50
2023-03-04T06:27:12.946Z,27.25
2023-03-04T06:32:14.474Z,25.38
2023-03-04T06:37:16.272Z,27.50
2023-03-04T06:42:17.984Z,26.90
2023-03-04T06:47:19.444Z,27.42
2023-03-04T06:52:21.019Z,26.08
2023-03-04T06:57:22.507Z,26.25
2023-03-04T07:02:23.967Z,26.08
2023-03-04T07:07:25.457Z,23.42
2023-03-04T07:12:26.998Z,25.48
2023-03-04T07:17:28.469Z,22.23
2023-03-04T07:22:29.947Z,22.20
2023-03-04T07:27:31.413Z,25.00
2023-03-04T07:32:33.361Z,23.52
2023-03-04T07:37:34.868Z,24.55
2023-03-04T07:42:36.430Z,26.75
2023-03-04T07:47:44.012Z,24.80
2023-03-04T07:52:47.640Z,26.83
2023-03-04T07:57:49.058Z,27.15
2023-03-04T08:02:50.565Z,26.17
2023-03-04T08:07:52.103Z,28.55
2023-03-04T08:12:53.618Z,29.55
2023-03-04T08:17:55.056Z,28.00
2023-03-04T08:22:56.518Z,29.48
2023-03-04T08:27:58.990Z,26.35
2023-03-04T08:33:02.073Z,27.85
2023-03-04T08:38:03.628Z,30.13
2023-03-04T08:43:05.133Z,27.80
2023-03-04T08:48:06.840Z,27.90
2023-03-04T08:53:08.355Z,26.63
2023-03-04T08:58:11.401Z,28.30
2023-03-04T09:03:13.034Z,27.85
2023-03-04T09:08:15.868Z,27.52
2023-03-04T09:13:17.318Z,27.65
2023-03-04T09:18:21.016Z,25.88
2023-03-04T09:23:23.225Z,27.00
2023-03-04T09:28:24.716Z,27.10
2023-03-04T09:33:26.256Z,28.00
2023-03-04T09:38:27.759Z,25.60
2023-03-04T09:43:30.673Z,27.55
2023-03-04T09:48:43.149Z,26.75
2023-03-04T09:53:53.104Z,26.23
2023-03-04T09:59:24.034Z,25.38
2023-03-04T10:04:31.189Z,27.52
2023-03-04T10:09:49.428Z,28.02
2023-03-04T10:15:16.997Z,25.83
2023-03-04T10:20:24.845Z,29.10
2023-03-04T10:25:33.339Z,27.88
2023-03-04T10:30:57.893Z,25.45
2023-03-04T10:36:22.288Z,27.55
2023-03-04T10:41:25.828Z,27.52
2023-03-04T10:46:27.485Z,25.73
2023-03-04T10:51:30.182Z,25.95
2023-03-04T10:56:36.351Z,25.50
2023-03-04T11:01:38.072Z,26.05
2023-03-04T11:06:42.546Z,27.35
2023-03-04T11:11:44.496Z,28.33
2023-03-04T11:16:54.640Z,26.85
2023-03-04T11:21:57.909Z,28.30
2023-03-04T11:27:13.051Z,28.45
2023-03-04T11:32:20.805Z,28.33
2023-03-04T11:37:45.688Z,26.88
2023-03-04T11:42:54.006Z,27.50
2023-03-04T11:47:55.448Z,30.10
2023-03-04T11:53:19.946Z,26.70
2023-03-04T11:58:38.104Z,27.17
2023-03-04T12:03:57.473Z,29.15
2023-03-04T12:09:14.352Z,29.17
2023-03-04T12:14:38.539Z,27.80
2023-03-04T12:19:53.941Z,28.95
2023-03-04T12:25:29.241Z,28.65
2023-03-04T12:30:58.588Z,31.58
2023-03-04T12:36:06.510Z,31.20
2023-03-04T12:41:29.805Z,34.97
2023-03-04T12:46:49.263Z,32.65
2023-03-04T12:52:12.227Z,30.98
2023-03-04T12:57:24.069Z,29.73
2023-03-04T13:02:39.338Z,29.70
2023-03-04T13:08:12.544Z,28.83
2023-03-04T13:13:41.320Z,39.10
2023-03-04T13:18:42.861Z,29.33
2023-03-04T13:23:44.414Z,28.58
2023-03-04T13:28:46.101Z,27.80
2023-03-04T13:33:53.957Z,26.10
2023-03-04T13:39:03.455Z,26.65
2023-03-04T13:44:32.849Z,24.65
2023-03-04T13:49:34.407Z,24.48
2023-03-04T13:54:35.909Z,25.60
2023-03-04T13:59:42.944Z,27.58
2023-03-04T14:04:46.517Z,27.38
2023-03-04T14:10:06.963Z,24.42
2023-03-04T14:15:20.953Z,28.70
2023-03-04T14:20:34.055Z,26.67
2023-03-04T14:25:37.268Z,25.30
2023-03-04T14:30:43.728Z,26.50
2023-03-04T14:35:48.845Z,26.00
2023-03-04T14:41:00.683Z,26.23
2023-03-04T14:46:03.438Z,24.88
2023-03-04T14:51:05.084Z,25.40
2023-03-04T14:56:09.450Z,23.35
2023-03-04T15:01:22.856Z,26.60
2023-03-04T15:06:26.799Z,26.67
2023-03-04T15:11:32.675Z,26.00
2023-03-04T15:16:54.925Z,25.65
2023-03-04T15:22:05.281Z,25.35
2023-03-04T15:27:11.991Z,24.95
2023-03-04T15:32:13.605Z,24.08
2023-03-04T15:37:22.083Z,26.15
2023-03-04T15:42:23.781Z,26.65
2023-03-04T15:47:25.301Z,25.75
2023-03-04T15:52:26.766Z,24.52
2023-03-04T15:57:28.296Z,23.88
2023-03-04T16:02:29.775Z,23.35
2023-03-04T16:07:31.367Z,23.52
2023-03-04T16:12:33.523Z,22.52
2023-03-04T16:17:35.059Z,23.90
2023-03-04T16:22:37.118Z,25.23
2023-03-04T16:27:39.334Z,24.08
2023-03-04T16:32:41.059Z,22.45
2023-03-04T16:37:43.467Z,23.35
2023-03-04T16:42:44.969Z,23.50
2023-03-04T16:47:46.756Z,24.83
2023-03-04T16:52:49.803Z,24.33
2023-03-04T16:57:52.713Z,24.05
2023-03-04T17:02:56.953Z,23.38
2023-03-04T17:07:58.885Z,25.15
2023-03-04T17:13:00.349Z,25.60
2023-03-04T17:18:01.814Z,24.00
2023-03-04T17:23:03.312Z,26.15
2023-03-04T17:28:05.037Z,31.83
2023-03-04T17:33:06.540Z,26.10
2023-03-04T17:38:08.191Z,25.08
2023-03-04T17:43:09.816Z,23.40
2023-03-04T17:48:12.045Z,24.25
2023-03-04T17:53:13.530Z,26.65
2023-03-04T17:58:14.979Z,26.05
2023-03-04T18:03:16.519Z,23.83
2023-03-04T18:08:18.068Z,24.17
2023-03-04T18:13:19.617Z,24.55
2023-03-04T18:18:21.567Z,25.40
2023-03-04T18:23:23.008Z,25.02
2023-03-04T18:28:24.901Z,24.00
2023-03-04T18:33:28.812Z,23.30
2023-03-04T18:38:30.254Z,23.35
2023-03-04T18:43:31.751Z,30.00
2023-03-04T18:48:38.310Z,20.73
2023-03-04T18:53:39.944Z,24.45
2023-03-04T18:58:45.535Z,23.25
2023-03-04T19:03:47.741Z,24.42
2023-03-04T19:08:49.209Z,31.40
2023-03-04T19:13:53.770Z,26.67
2023-03-04T19:18:55.356Z,23.55
2023-03-04T19:23:56.878Z,17.30
2023-03-04T19:28:58.332Z,15.77
2023-03-04T19:34:00.014Z,14.05
2023-03-04T19:39:01.627Z,14.98
2023-03-04T19:44:03.115Z,16.35
2023-03-04T19:49:04.935Z,15.20
2023-03-04T19:54:06.387Z,16.67
2023-03-04T19:59:07.884Z,16.27
2023-03-04T20:04:13.338Z,17.17
2023-03-04T20:09:16.048Z,16.90
2023-03-04T20:14:17.574Z,16.42
2023-03-04T20:19:19.038Z,16.77
2023-03-04T20:24:20.488Z,18.63
2023-03-04T20:29:22.648Z,18.30
2023-03-04T20:34:24.299Z,20.20
2023-03-04T20:39:29.540Z,20.05
2023-03-04T20:44:31.352Z,22.05
2023-03-04T20:49:32.836Z,20.45
2023-03-04T20:54:38.107Z,22.98
2023-03-04T20:59:40.708Z,21.48
2023-03-04T21:04:42.718Z,21.13
2023-03-04T21:09:44.292Z,20.40
2023-03-04T21:14:46.158Z,22.00
2023-03-04T21:19:47.601Z,22.27
2023-03-04T21:24:49.038Z,23.75
2023-03-04T21:29:50.483Z,22.40
2023-03-04T21:34:54.288Z,19.75
2023-03-04T21:39:55.861Z,21.38
2023-03-04T21:44:57.345Z,21.65
2023-03-04T21:49:58.799Z,23.35
2023-03-04T21:55:00.372Z,21.35
2023-03-04T22:00:01.929Z,24.25
2023-03-04T22:05:13.312Z,21.33
2023-03-04T22:10:14.980Z,21.88
2023-03-04T22:15:16.499Z,19.92
2023-03-04T22:20:18.070Z,22.17
2023-03-04T22:25:19.593Z,19.63
2023-03-04T22:30:21.867Z,19.92
2023-03-04T22:35:23.408Z,20.40
2023-03-04T22:40:24.952Z,24.02
2023-03-04T22:45:26.472Z,19.08
2023-03-04T22:50:28.268Z,21.58
2023-03-04T22:55:29.695Z,20.73
2023-03-04T23:00:32.005Z,21.52
2023-03-04T23:05:33.494Z,20.95
2023-03-04T23:10:34.936Z,20.60
2023-03-04T23:15:36.383Z,20.95
2023-03-04T23:20:37.858Z,20.17
2023-03-04T23:25:39.449Z,20.92
2023-03-04T23:30:40.934Z,22.60
2023-03-04T23:35:42.458Z,21.55
2023-03-04T23:40:44.034Z,23.77
2023-03-04T23:45:45.598Z,19.05
2023-03-04T23:50:51.679Z,21.88
2023-03-04T23:55:53.233Z,21.38
